Terminal Aerodrome Forecast
Issued by NWS Spokane, WA

Home | Current Version | Previous Version | Text Only | Print | Product List | Glossary On
Versions: 1 2 3 4 5 6 7 8 9 10 11 12 13 14 15 16 17 18 19 20 21 22 23 24 25 26 27 28 29 30 31 32 33 34 35 36 37 38 39 40 41 42 43
000
FTUS46 KOTX 270306 AAA
TAFGEG
TAF AMD
KGEG 270306Z 2703/2724 06006KT 6SM BR SCT005 BKN200
      TEMPO 2703/2706 2SM BR OVC005
     FM270600 18008KT 6SM BR BKN015 OVC050
      TEMPO 2711/2715 -SHRA
     FM271500 21012KT P6SM VCSH SCT018 OVC050
     FM271900 21014G24KT P6SM BKN050 OVC080=

USA.gov is the U.S. government's official web portal to all federal, state and local government web resources and services.